Time;durP1;ratioP1;P1;durP2;ratioP2;P2;SDS_P1;SDS_P2;PMS_P1;PMS_P2;Temp;Humidity;BMP_temperature;BMP_pressure;BME280_temperature;BME280_humidity;BME280_pressure;Samples;Min_cycle;Max_cycle;Signal;HPM_P1;HPM_P2
2021/01/04 00:03:14;;;;;;;57.35;26.02;;;;;;;2.36;100.00;100131.38;4957776;29;20142;-62
2021/01/04 00:06:16;;;;;;;63.40;27.52;;;;;;;2.37;100.00;100133.06;4944478;29;20098;-62
2021/01/04 00:09:15;;;;;;;62.38;26.63;;;;;;;2.38;100.00;100129.50;4958554;29;20042;-63
2021/01/04 00:12:17;;;;;;;58.00;25.63;;;;;;;2.38;100.00;100134.75;4958605;29;20419;-63
2021/01/04 00:15:07;;;;;;;68.10;26.48;;;;;;;2.31;100.00;100125.56;4957581;29;20120;-62
2021/01/04 00:17:59;;;;;;;60.17;25.08;;;;;;;2.36;100.00;100128.75;4944263;29;20065;-62
2021/01/04 00:20:52;;;;;;;55.35;25.70;;;;;;;2.37;100.00;100122.53;4958693;29;20055;-62
2021/01/04 00:23:55;;;;;;;63.15;27.00;;;;;;;2.42;100.00;100115.22;4944079;29;20043;-62
2021/01/04 00:26:53;;;;;;;62.83;27.02;;;;;;;2.38;100.00;100115.50;4957371;28;20098;-62
2021/01/04 00:29:38;;;;;;;56.38;26.02;;;;;;;2.37;100.00;100112.03;4943647;29;20046;-60
2021/01/04 00:32:26;;;;;;;57.17;25.83;;;;;;;2.36;100.00;100112.97;4944178;29;20101;-63
2021/01/04 00:35:13;;;;;;;63.08;26.02;;;;;;;2.38;100.00;100105.81;4943635;29;20063;-63
2021/01/04 00:38:12;;;;;;;57.45;24.67;;;;;;;2.37;100.00;100105.94;4958078;29;20102;-62
2021/01/04 00:41:20;;;;;;;54.33;24.45;;;;;;;2.39;100.00;100115.38;4943875;29;20511;-62
2021/01/04 00:44:09;;;;;;;56.38;24.83;;;;;;;2.39;100.00;100110.13;4956987;29;20054;-63
2021/01/04 00:47:02;;;;;;;59.40;25.13;;;;;;;2.42;100.00;100115.22;4956990;28;20117;-62
2021/01/04 00:49:49;;;;;;;65.25;26.25;;;;;;;2.41;100.00;100105.63;4957145;29;20102;-62
2021/01/04 00:52:41;;;;;;;66.00;27.40;;;;;;;2.41;100.00;100108.28;4957133;29;20098;-62
2021/01/04 00:56:02;;;;;;;60.70;25.63;;;;;;;2.41;100.00;100112.66;4956740;28;20050;-62
2021/01/04 00:59:10;;;;;;;59.72;25.60;;;;;;;2.44;100.00;100113.31;4957746;29;20050;-62
2021/01/04 01:02:28;;;;;;;60.72;24.70;;;;;;;2.42;100.00;100121.31;4956969;29;20105;-63
2021/01/04 01:05:38;;;;;;;64.15;26.00;;;;;;;2.42;100.00;100118.69;4956648;28;20130;-64
2021/01/04 01:08:26;;;;;;;54.55;24.70;;;;;;;2.40;100.00;100117.06;4943570;29;20089;-62
2021/01/04 01:11:18;;;;;;;61.55;24.33;;;;;;;2.41;100.00;100128.47;4957440;29;20433;-62
2021/01/04 01:14:36;;;;;;;62.80;26.23;;;;;;;2.40;100.00;100132.84;4957472;29;20054;-63
2021/01/04 01:17:42;;;;;;;63.80;24.83;;;;;;;2.33;100.00;100131.56;4957371;28;20045;-62
2021/01/04 01:20:27;;;;;;;63.17;25.08;;;;;;;2.39;100.00;100127.72;4957353;29;20046;-62
2021/01/04 01:23:11;;;;;;;64.55;24.13;;;;;;;2.42;100.00;100131.00;4943070;29;20058;-63
2021/01/04 01:26:33;;;;;;;60.83;24.70;;;;;;;2.42;100.00;100133.63;4942659;29;20063;-62
2021/01/04 01:29:51;;;;;;;66.55;23.00;;;;;;;2.42;100.00;100140.66;4957103;29;20046;-62
2021/01/04 01:32:56;;;;;;;65.57;24.13;;;;;;;2.45;100.00;100136.06;4942990;29;20093;-62
2021/01/04 01:35:59;;;;;;;63.28;23.88;;;;;;;2.42;100.00;100133.63;4957281;28;20405;-63
2021/01/04 01:39:25;;;;;;;60.20;23.98;;;;;;;2.46;100.00;100139.56;4957622;29;20098;-63
2021/01/04 01:43:00;;;;;;;65.78;25.17;;;;;;;2.48;100.00;100141.97;4957252;29;20507;-62
2021/01/04 01:46:04;;;;;;;67.95;25.50;;;;;;;2.43;100.00;100144.03;4941748;28;20050;-61
2021/01/04 01:49:17;;;;;;;63.22;23.23;;;;;;;2.46;100.00;100139.56;4956931;29;20058;-62
2021/01/04 01:52:13;;;;;;;70.45;24.42;;;;;;;2.51;100.00;100140.94;4956794;29;20085;-62
2021/01/04 01:55:12;;;;;;;61.33;25.70;;;;;;;2.43;100.00;100146.66;4955904;29;20416;-63
2021/01/04 01:58:23;;;;;;;58.53;23.60;;;;;;;2.44;100.00;100145.72;4955661;29;20050;-63
2021/01/04 02:01:13;;;;;;;66.10;24.67;;;;;;;2.46;100.00;100153.53;4956884;29;20046;-62
2021/01/04 02:04:11;;;;;;;67.97;23.98;;;;;;;2.47;100.00;100149.13;4942019;29;20102;-62
2021/01/04 02:06:58;;;;;;;64.57;25.10;;;;;;;2.44;100.00;100152.78;4941954;29;20468;-62
2021/01/04 02:09:45;;;;;;;64.80;24.48;;;;;;;2.39;100.00;100146.97;4956645;29;20049;-62
2021/01/04 02:12:51;;;;;;;58.63;23.60;;;;;;;2.45;100.00;100149.22;4955413;29;20520;-62
2021/01/04 02:15:58;;;;;;;60.33;22.80;;;;;;;2.42;100.00;100152.06;4955320;28;20050;-63
2021/01/04 02:19:03;;;;;;;61.97;24.05;;;;;;;2.42;100.00;100143.31;4941790;29;20085;-62
2021/01/04 02:22:02;;;;;;;60.03;23.85;;;;;;;2.43;100.00;100144.03;4941682;29;20050;-62
2021/01/04 02:24:47;;;;;;;63.40;24.08;;;;;;;2.47;100.00;100149.97;4955376;29;20046;-62
2021/01/04 02:27:34;;;;;;;57.55;22.55;;;;;;;2.46;100.00;100147.44;4941721;29;20046;-62
2021/01/04 02:30:18;;;;;;;57.15;24.90;;;;;;;2.48;100.00;100143.75;4955330;29;20049;-62
2021/01/04 02:33:04;;;;;;;60.17;24.23;;;;;;;2.52;100.00;100135.56;4956551;29;20046;-62
2021/01/04 02:35:48;;;;;;;52.10;22.92;;;;;;;2.53;100.00;100139.06;4941395;28;20050;-62
2021/01/04 02:38:38;;;;;;;58.92;23.58;;;;;;;2.50;100.00;100144.50;4955216;29;20049;-63
2021/01/04 02:41:22;;;;;;;67.30;23.77;;;;;;;2.55;100.00;100135.41;4954922;29;20098;-62
2021/01/04 02:44:07;;;;;;;61.25;23.88;;;;;;;2.53;100.00;100144.31;4941589;29;20054;-63
2021/01/04 02:47:17;;;;;;;56.85;23.98;;;;;;;2.48;100.00;100136.72;4955696;28;20051;-62
2021/01/04 02:50:29;;;;;;;55.33;23.63;;;;;;;2.49;100.00;100138.41;4955725;29;20583;-63
2021/01/04 02:53:34;;;;;;;60.05;24.40;;;;;;;2.51;100.00;100141.78;4955707;29;20484;-62
2021/01/04 02:56:44;;;;;;;57.38;24.52;;;;;;;2.49;100.00;100134.91;4941270;29;20058;-62
2021/01/04 02:59:59;;;;;;;58.45;25.88;;;;;;;2.51;100.00;100141.78;4954718;29;20050;-63
2021/01/04 03:02:46;;;;;;;59.08;25.60;;;;;;;2.58;100.00;100129.94;4955696;29;20122;-62
2021/01/04 03:05:31;;;;;;;56.78;24.33;;;;;;;2.58;100.00;100137.81;4954669;28;20518;-63
2021/01/04 03:08:15;;;;;;;61.38;26.48;;;;;;;2.55;100.00;100129.28;4940930;29;20534;-62
2021/01/04 03:10:58;;;;;;;63.15;26.50;;;;;;;2.58;100.00;100134.34;4955682;29;20130;-62
2021/01/04 03:14:05;;;;;;;63.47;27.55;;;;;;;2.64;100.00;100128.69;4955678;29;20130;-63
2021/01/04 03:17:16;;;;;;;59.55;27.23;;;;;;;2.58;100.00;100136.97;4954277;28;20113;-63
2021/01/04 03:20:04;;;;;;;63.60;29.05;;;;;;;2.57;100.00;100132.66;4941289;29;20061;-63
2021/01/04 03:22:50;;;;;;;58.97;28.50;;;;;;;2.47;100.00;100134.16;4954299;29;20101;-62
2021/01/04 03:25:44;;;;;;;63.95;30.45;;;;;;;2.54;100.00;100138.94;4940790;28;20105;-63
2021/01/04 03:28:29;;;;;;;63.30;30.98;;;;;;;2.50;100.00;100131.34;4953874;28;20049;-63
2021/01/04 03:31:14;;;;;;;62.38;29.52;;;;;;;2.53;100.00;100139.88;4955389;29;20098;-63
2021/01/04 03:33:58;;;;;;;60.42;31.50;;;;;;;2.57;100.00;100135.28;4955247;29;20468;-62
2021/01/04 03:36:42;;;;;;;58.22;31.35;;;;;;;2.60;100.00;100142.97;4955597;28;20115;-62
2021/01/04 03:39:36;;;;;;;60.17;30.88;;;;;;;2.60;100.00;100142.97;4955085;29;20046;-63
2021/01/04 03:42:20;;;;;;;56.22;30.33;;;;;;;2.65;100.00;100141.72;4954068;29;20065;-63
2021/01/04 03:45:06;;;;;;;63.35;31.67;;;;;;;2.63;100.00;100138.34;4954339;29;20054;-62
2021/01/04 03:47:50;;;;;;;59.60;30.38;;;;;;;2.64;100.00;100141.84;4955659;29;20059;-63
2021/01/04 03:50:34;;;;;;;63.55;32.25;;;;;;;2.67;100.00;100144.28;4954203;29;20081;-63
2021/01/04 03:53:19;;;;;;;55.60;30.70;;;;;;;2.68;100.00;100148.59;4954236;29;20105;-62
2021/01/04 03:56:03;;;;;;;57.63;31.80;;;;;;;2.68;100.00;100148.59;4940643;29;20584;-63
2021/01/04 03:58:47;;;;;;;58.63;32.00;;;;;;;2.69;100.00;100147.66;4940373;29;20050;-63
2021/01/04 04:01:31;;;;;;;57.58;31.90;;;;;;;2.69;100.00;100150.28;4954888;29;20054;-63
2021/01/04 04:04:16;;;;;;;61.83;32.60;;;;;;;2.68;100.00;100143.34;4940655;29;20058;-62
2021/01/04 04:07:01;;;;;;;58.53;31.02;;;;;;;2.69;100.00;100137.13;4954028;28;20101;-63
2021/01/04 04:09:46;;;;;;;61.65;33.53;;;;;;;2.67;100.00;100146.91;4940276;29;20098;-62
2021/01/04 04:12:31;;;;;;;59.55;31.38;;;;;;;2.66;100.00;100143.44;4954106;29;20503;-63
2021/01/04 04:15:16;;;;;;;60.35;31.45;;;;;;;2.67;100.00;100154.81;4954950;28;20077;-64
2021/01/04 04:18:00;;;;;;;56.67;30.88;;;;;;;2.64;100.00;100150.56;4940291;29;20556;-63
2021/01/04 04:20:44;;;;;;;63.60;33.00;;;;;;;2.66;100.00;100148.72;4954766;29;20069;-63
2021/01/04 04:23:28;;;;;;;57.58;32.70;;;;;;;2.67;100.00;100152.16;4953978;29;20133;-63
2021/01/04 04:26:20;;;;;;;58.33;32.08;;;;;;;2.67;100.00;100157.44;4953633;28;20074;-63
2021/01/04 04:29:04;;;;;;;55.30;31.17;;;;;;;2.64;100.00;100155.84;4954694;29;20058;-64
2021/01/04 04:31:49;;;;;;;57.55;31.90;;;;;;;2.70;100.00;100154.59;4940100;29;20633;-64
2021/01/04 04:34:34;;;;;;;57.13;31.05;;;;;;;2.68;100.00;100153.88;4954859;29;20551;-63
2021/01/04 04:37:18;;;;;;;58.88;32.35;;;;;;;2.69;100.00;100150.28;4953558;28;20160;-63
2021/01/04 04:40:04;;;;;;;59.97;32.55;;;;;;;2.68;100.00;100153.88;4956365;28;20183;-63
2021/01/04 04:42:53;;;;;;;56.47;32.03;;;;;;;2.68;100.00;100140.69;4957285;29;20543;-63
2021/01/04 04:45:38;;;;;;;54.53;30.05;;;;;;;2.66;100.00;100142.59;4956837;28;20119;-63
2021/01/04 04:48:35;;;;;;;56.25;31.77;;;;;;;2.65;100.00;100148.81;4943781;29;20499;-63
2021/01/04 04:51:22;;;;;;;57.45;32.28;;;;;;;2.70;100.00;100149.34;4958058;29;20085;-63
2021/01/04 04:54:21;;;;;;;57.00;32.17;;;;;;;2.67;100.00;100152.16;4957815;29;20058;-64
2021/01/04 04:57:36;;;;;;;48.20;26.65;;;;;;;2.62;100.00;100154.28;4958031;28;20050;-63
2021/01/04 05:00:56;;;;;;;52.05;28.13;;;;;;;2.59;100.00;100149.19;4943132;29;20047;-63
2021/01/04 05:04:00;;;;;;;48.25;26.38;;;;;;;2.55;100.00;100148.56;4956912;29;20637;-64
2021/01/04 05:06:49;;;;;;;49.87;27.53;;;;;;;2.56;100.00;100144.13;4956739;28;20089;-63
2021/01/04 05:09:50;;;;;;;51.20;27.75;;;;;;;2.57;100.00;100148.44;4957536;29;20288;-63
2021/01/04 05:13:05;;;;;;;51.03;27.85;;;;;;;2.53;100.00;100149.59;4957804;29;20069;-64
2021/01/04 05:16:05;;;;;;;50.97;28.95;;;;;;;2.50;100.00;100141.88;4957519;28;20046;-62
2021/01/04 05:18:58;;;;;;;58.75;30.65;;;;;;;2.53;100.00;100146.97;4956390;29;20054;-63
2021/01/04 05:22:07;;;;;;;53.60;30.70;;;;;;;2.49;100.00;100148.06;4957277;29;20042;-64
2021/01/04 05:25:12;;;;;;;58.03;30.70;;;;;;;2.54;100.00;100153.91;4956526;29;20046;-64
2021/01/04 05:28:18;;;;;;;56.03;29.90;;;;;;;2.53;100.00;100150.41;4957407;29;20082;-64
2021/01/04 05:31:11;;;;;;;54.92;29.35;;;;;;;2.55;100.00;100147.69;4957415;29;20452;-64
2021/01/04 05:34:14;;;;;;;55.05;29.83;;;;;;;2.56;100.00;100150.25;4957386;29;20062;-64
2021/01/04 05:37:24;;;;;;;57.65;31.02;;;;;;;2.54;100.00;100151.28;4957278;28;20058;-63
2021/01/04 05:40:42;;;;;;;54.58;29.75;;;;;;;2.56;100.00;100152.00;4956194;29;20102;-64
2021/01/04 05:43:52;;;;;;;56.83;30.48;;;;;;;2.57;100.00;100151.06;4956463;29;20054;-64
2021/01/04 05:46:45;;;;;;;56.03;28.88;;;;;;;2.57;100.00;100145.81;4956924;28;20098;-64
2021/01/04 05:49:55;;;;;;;59.03;31.00;;;;;;;2.56;100.00;100146.75;4942447;29;20129;-64
2021/01/04 05:52:39;;;;;;;55.00;29.15;;;;;;;2.55;100.00;100152.97;4941469;29;20137;-64
2021/01/04 05:55:23;;;;;;;;;;;;;;;2.52;100.00;100158.44;4957332;28;20117;-64
2021/01/04 05:58:18;;;;;;;50.70;27.33;;;;;;;2.48;100.00;100156.91;4956951;29;20007;-64
2021/01/04 06:01:17;;;;;;;55.88;29.33;;;;;;;2.48;100.00;100156.91;4956868;29;20085;-64
2021/01/04 06:04:05;;;;;;;54.72;28.95;;;;;;;2.50;100.00;100150.63;4942321;29;20051;-63
2021/01/04 06:06:52;;;;;;;52.97;28.67;;;;;;;2.49;100.00;100159.44;4956537;28;20046;-64
2021/01/04 06:09:36;;;;;;;54.25;28.38;;;;;;;2.49;100.00;100159.44;4956636;29;20050;-64
2021/01/04 06:12:36;;;;;;;54.60;29.13;;;;;;;2.48;100.00;100154.28;4955863;29;20130;-64
2021/01/04 06:15:30;;;;;;;52.40;28.58;;;;;;;2.44;100.00;100158.06;4955515;28;20081;-64
2021/01/04 06:18:24;;;;;;;50.13;28.23;;;;;;;2.42;100.00;100162.56;4956572;29;20489;-63
2021/01/04 06:21:40;;;;;;;54.20;28.20;;;;;;;2.39;100.00;100165.38;4955554;29;20105;-64
2021/01/04 06:24:29;;;;;;;54.00;27.58;;;;;;;2.40;100.00;100159.16;4943647;29;20066;-63
2021/01/04 06:27:41;;;;;;;54.55;29.35;;;;;;;2.38;100.00;100161.06;4941839;29;20567;-63
2021/01/04 06:30:34;;;;;;;55.65;29.58;;;;;;;2.37;100.00;100169.06;4954989;29;20423;-63
2021/01/04 06:33:19;;;;;;;53.85;29.02;;;;;;;2.34;100.00;100164.84;4941568;29;20102;-63
2021/01/04 06:36:14;;;;;;;58.60;30.92;;;;;;;2.39;100.00;100162.75;4941724;29;20050;-63
2021/01/04 06:39:11;;;;;;;56.47;28.70;;;;;;;2.39;100.00;100162.75;4941658;29;20077;-63
2021/01/04 06:42:11;;;;;;;49.53;27.25;;;;;;;2.37;100.00;100161.16;4955862;29;20126;-63
2021/01/04 06:45:18;;;;;;;52.10;28.40;;;;;;;2.35;100.00;100163.88;4941784;29;20512;-64
2021/01/04 06:48:05;;;;;;;50.10;26.88;;;;;;;2.38;100.00;100170.75;4941316;29;20448;-64
2021/01/04 06:51:26;;;;;;;50.95;27.98;;;;;;;2.36;100.00;100160.31;4954917;29;20049;-64
2021/01/04 06:54:10;;;;;;;51.22;27.80;;;;;;;2.36;100.00;100162.94;4956010;29;20050;-64
2021/01/04 06:57:16;;;;;;;54.28;27.30;;;;;;;2.31;100.00;100159.78;4955606;28;20061;-63
2021/01/04 07:00:18;;;;;;;51.60;26.48;;;;;;;2.31;100.00;100162.41;4955895;29;20123;-63
2021/01/04 07:03:45;;;;;;;49.78;27.25;;;;;;;2.31;100.00;100165.03;4954978;28;20499;-64
2021/01/04 07:06:47;;;;;;;53.70;27.52;;;;;;;2.32;100.00;100166.72;4935478;28;20054;-63
2021/01/04 07:09:54;;;;;;;53.85;27.83;;;;;;;2.28;100.00;100169.63;4955586;29;20046;-64
2021/01/04 07:12:50;;;;;;;53.50;27.15;;;;;;;2.30;100.00;100170.38;4954438;29;20094;-63
2021/01/04 07:15:42;;;;;;;58.08;27.98;;;;;;;2.29;100.00;100177.41;4940801;28;20121;-63
2021/01/04 07:18:38;;;;;;;58.35;28.50;;;;;;;2.31;100.00;100179.94;4954888;29;20054;-64
2021/01/04 07:21:42;;;;;;;54.42;28.35;;;;;;;2.35;100.00;100182.31;4954827;29;20553;-64
2021/01/04 07:24:32;;;;;;;58.92;28.50;;;;;;;2.33;100.00;100178.94;4954258;29;20049;-63
2021/01/04 07:27:31;;;;;;;54.63;27.30;;;;;;;2.34;100.00;100179.75;4955255;28;20086;-64
2021/01/04 07:30:41;;;;;;;58.35;28.05;;;;;;;2.34;100.00;100182.38;4954425;29;20170;-64
2021/01/04 07:33:35;;;;;;;55.08;27.48;;;;;;;2.30;100.00;100184.38;4954426;29;20066;-64
2021/01/04 07:36:39;;;;;;;57.37;28.23;;;;;;;2.31;100.00;100190.47;4954071;28;20086;-64
2021/01/04 07:39:29;;;;;;;57.17;27.35;;;;;;;2.32;100.00;100187.75;4954749;29;20086;-63
2021/01/04 07:43:01;;;;;;;60.92;28.75;;;;;;;2.28;100.00;100186.25;4955226;29;20515;-64
2021/01/04 07:46:23;;;;;;;61.45;30.55;;;;;;;2.33;100.00;100181.56;4895846;29;20108;-63
2021/01/04 07:49:10;;;;;;;57.85;27.30;;;;;;;2.30;100.00;100178.25;4883147;29;20047;-63
2021/01/04 07:52:16;;;;;;;62.58;28.98;;;;;;;2.29;100.00;100182.66;4955055;29;20519;-64
2021/01/04 07:55:12;;;;;;;62.83;28.70;;;;;;;2.28;100.00;100180.16;4954920;29;20082;-63
2021/01/04 07:58:37;;;;;;;61.08;29.85;;;;;;;2.26;100.00;100185.50;4955154;29;20133;-64
2021/01/04 08:01:55;;;;;;;63.40;29.20;;;;;;;2.33;100.00;100189.44;4954237;29;20111;-63
2021/01/04 08:04:42;;;;;;;61.70;28.23;;;;;;;2.31;100.00;100188.69;4954821;29;20515;-64
2021/01/04 08:07:52;;;;;;;64.00;29.23;;;;;;;2.35;100.00;100191.97;4954720;28;20050;-64
2021/01/04 08:10:51;;;;;;;60.75;27.83;;;;;;;2.38;100.00;100192.63;4940421;29;20102;-63
2021/01/04 08:13:50;;;;;;;61.63;29.55;;;;;;;2.34;100.00;100191.13;4955048;28;20094;-63
2021/01/04 08:16:44;;;;;;;63.63;29.23;;;;;;;2.36;100.00;100189.25;4958491;28;20069;-64
2021/01/04 08:19:29;;;;;;;58.40;28.23;;;;;;;2.38;100.00;100187.34;4943977;29;20047;-64
2021/01/04 08:22:24;;;;;;;59.25;27.50;;;;;;;2.45;100.00;100201.84;4958678;29;20090;-64
2021/01/04 08:25:19;;;;;;;59.80;28.45;;;;;;;2.47;100.00;100196.50;4958636;29;20094;-64
2021/01/04 08:28:16;;;;;;;60.28;28.05;;;;;;;2.50;100.00;100197.13;4957338;29;20046;-63
2021/01/04 08:31:20;;;;;;;59.15;27.65;;;;;;;2.48;100.00;100201.63;4958436;29;20046;-63
2021/01/04 08:34:06;;;;;;;54.90;27.52;;;;;;;2.51;100.00;100198.84;4957500;29;20109;-64
2021/01/04 08:36:56;;;;;;;58.83;28.13;;;;;;;2.47;100.00;100199.94;4943666;29;20054;-64
2021/01/04 08:39:48;;;;;;;57.70;27.92;;;;;;;2.49;100.00;100205.94;4957675;29;20085;-63
2021/01/04 08:42:33;;;;;;;61.22;28.42;;;;;;;2.47;100.00;100207.00;4957347;29;20085;-64
2021/01/04 08:45:29;;;;;;;56.38;26.92;;;;;;;2.50;100.00;100197.97;4956894;28;20046;-64
2021/01/04 08:48:19;;;;;;;52.05;25.90;;;;;;;2.47;100.00;100202.56;4943479;29;20183;-64
2021/01/04 08:51:26;;;;;;;56.05;27.55;;;;;;;2.53;100.00;100208.28;4957836;29;20054;-63
2021/01/04 08:54:09;;;;;;;58.45;27.63;;;;;;;2.56;100.00;100212.53;4958135;29;20051;-64
2021/01/04 08:57:07;;;;;;;53.45;25.92;;;;;;;2.57;100.00;100208.97;4957760;28;20078;-64
2021/01/04 08:59:56;;;;;;;56.30;26.50;;;;;;;2.64;100.00;100215.53;4956788;29;20045;-63
2021/01/04 09:02:42;;;;;;;60.67;28.45;;;;;;;2.68;100.00;100204.72;4956884;29;20053;-64
2021/01/04 09:05:35;;;;;;;58.13;27.60;;;;;;;2.69;100.00;100209.03;4957610;28;20049;-64
2021/01/04 09:08:29;;;;;;;57.90;27.52;;;;;;;2.75;100.00;100206.00;4943449;29;20554;-64
2021/01/04 09:11:15;;;;;;;60.80;27.67;;;;;;;2.78;100.00;100207.59;4956554;29;20516;-64
2021/01/04 09:14:11;;;;;;;59.33;29.40;;;;;;;2.76;100.00;100204.22;4957472;29;20480;-64
2021/01/04 09:16:55;;;;;;;64.45;30.38;;;;;;;2.79;100.00;100193.50;4956763;28;20176;-64
2021/01/04 09:19:41;;;;;;;63.05;32.17;;;;;;;2.89;100.00;100200.72;4956674;29;20062;-64
2021/01/04 09:22:25;;;;;;;68.20;33.45;;;;;;;2.92;100.00;100207.59;4957624;29;20633;-64
2021/01/04 09:25:26;;;;;;;65.57;34.05;;;;;;;2.92;100.00;100210.22;4957312;28;20121;-64
2021/01/04 09:28:10;;;;;;;131.35;56.42;;;;;;;2.98;100.00;100207.19;4942830;29;20050;-64
2021/01/04 09:30:54;;;;;;;97.32;49.20;;;;;;;2.96;100.00;100209.94;4957416;29;20054;-64
2021/01/04 09:33:50;;;;;;;99.53;49.65;;;;;;;3.02;100.00;100211.34;4956328;29;20098;-64
2021/01/04 09:36:34;;;;;;;77.32;37.63;;;;;;;3.01;100.00;100210.47;4942695;29;20134;-64
2021/01/04 09:39:18;;;;;;;;;;;;;;;3.03;100.00;100211.22;4956787;29;20058;-64
2021/01/04 09:42:05;;;;;;;72.38;37.05;;;;;;;3.14;100.00;100221.06;4956245;29;20445;-64
2021/01/04 09:44:49;;;;;;;87.88;52.20;;;;;;;3.14;100.00;100211.38;4955966;29;20046;-64
2021/01/04 09:47:38;;;;;;;78.40;43.97;;;;;;;3.11;100.00;100214.19;4957331;28;20130;-63
2021/01/04 09:50:30;;;;;;;56.67;34.17;;;;;;;3.17;100.00;100210.34;4942613;29;20074;-63
2021/01/04 09:53:21;;;;;;;69.95;41.90;;;;;;;3.16;100.00;100212.09;4956106;29;20095;-63
2021/01/04 09:56:16;;;;;;;87.90;52.47;;;;;;;3.19;100.00;100213.69;4955714;28;20066;-63
2021/01/04 09:59:12;;;;;;;75.15;38.97;;;;;;;3.26;100.00;100220.28;4928657;29;20511;-63
2021/01/04 10:02:00;;;;;;;95.10;56.72;;;;;;;3.25;100.00;100216.78;4956644;29;20163;-63
2021/01/04 10:04:45;;;;;;;66.22;35.10;;;;;;;3.27;100.00;100212.28;4928826;29;20079;-62
2021/01/04 10:07:29;;;;;;;100.30;56.60;;;;;;;3.34;100.00;100213.53;4956515;28;20456;-63
2021/01/04 10:10:17;;;;;;;86.60;51.50;;;;;;;3.40;100.00;100207.03;4956545;29;20070;-63
2021/01/04 10:13:06;;;;;;;71.43;34.40;;;;;;;3.42;100.00;100199.84;4942225;29;20054;-63
2021/01/04 10:15:52;;;;;;;88.55;51.85;;;;;;;3.48;100.00;100200.31;4956308;28;20053;-62
2021/01/04 10:18:55;;;;;;;72.20;42.95;;;;;;;3.46;100.00;100198.72;4942040;29;20097;-63
2021/01/04 10:21:58;;;;;;;73.55;40.50;;;;;;;3.50;100.00;100197.56;4956494;29;20045;-62
2021/01/04 10:24:45;;;;;;;146.07;82.03;;;;;;;3.46;100.00;100199.56;4956505;29;20138;-63
2021/01/04 10:27:30;;;;;;;85.47;50.08;;;;;;;3.57;100.00;100189.16;4956102;28;20070;-63
2021/01/04 10:30:14;;;;;;;113.13;67.38;;;;;;;3.64;100.00;100184.34;4956074;29;20165;-63
2021/01/04 10:33:21;;;;;;;64.55;37.65;;;;;;;3.60;100.00;100190.75;4955152;29;20142;-63
2021/01/04 10:36:14;;;;;;;70.88;42.35;;;;;;;3.61;100.00;100184.53;4955259;28;20511;-63
2021/01/04 10:38:59;;;;;;;72.60;40.40;;;;;;;3.70;100.00;100173.38;4956047;28;20118;-62
2021/01/04 10:41:43;;;;;;;52.17;30.08;;;;;;;3.74;100.00;100182.78;4955200;29;20562;-64
2021/01/04 10:44:28;;;;;;;53.78;27.92;;;;;;;3.71;100.00;100178.53;4956019;29;20050;-62
2021/01/04 10:47:25;;;;;;;48.72;27.38;;;;;;;3.76;100.00;100170.31;4954609;28;20054;-63
2021/01/04 10:50:21;;;;;;;45.92;25.48;;;;;;;3.87;100.00;100165.16;4954955;29;20102;-63
2021/01/04 10:53:11;;;;;;;53.65;31.40;;;;;;;3.83;100.00;100168.94;4954753;29;20057;-63
2021/01/04 10:56:14;;;;;;;51.30;27.80;;;;;;;3.88;100.00;100165.03;4941154;28;20057;-63
2021/01/04 10:59:23;;;;;;;67.57;37.15;;;;;;;3.95;100.00;100168.13;4955603;29;20174;-63
2021/01/04 11:02:08;;;;;;;76.78;43.90;;;;;;;3.98;99.70;100160.00;4954675;29;20051;-63
2021/01/04 11:04:53;;;;;;;65.20;40.22;;;;;;;3.97;99.51;100153.84;4954513;29;20102;-62
2021/01/04 11:07:38;;;;;;;57.00;34.38;;;;;;;3.96;99.87;100156.63;4955374;28;20415;-62
2021/01/04 11:10:28;;;;;;;43.88;26.08;;;;;;;4.07;99.38;100146.19;4940842;29;20080;-63
2021/01/04 11:13:12;;;;;;;44.67;26.67;;;;;;;4.07;98.72;100152.28;4955962;29;20507;-63
2021/01/04 11:16:05;;;;;;;;;;;;;;;4.08;98.03;100153.97;4955695;28;20563;-63
2021/01/04 11:18:55;;;;;;;78.25;43.45;;;;;;;4.14;97.48;100150.03;4954275;29;19922;-62
2021/01/04 11:21:44;;;;;;;77.07;43.88;;;;;;;4.07;98.15;100151.44;4955276;29;20042;-63
2021/01/04 11:24:28;;;;;;;71.80;40.95;;;;;;;4.10;97.52;100152.09;4941437;29;20510;-63
2021/01/04 11:27:13;;;;;;;37.80;20.45;;;;;;;4.08;98.22;100142.59;4954934;28;20066;-63
2021/01/04 11:29:58;;;;;;;47.63;27.90;;;;;;;4.00;98.08;100150.19;4955094;29;20413;-63
2021/01/04 11:32:42;;;;;;;40.38;22.42;;;;;;;4.06;98.14;100145.31;4955163;29;20054;-63
2021/01/04 11:35:30;;;;;;;54.97;32.22;;;;;;;4.03;99.41;100145.53;4954244;28;20106;-63
2021/01/04 11:38:14;;;;;;;94.53;54.25;;;;;;;4.09;99.57;100131.94;4955328;29;20046;-63
2021/01/04 11:40:59;;;;;;;48.00;27.75;;;;;;;4.10;98.83;100130.13;4955077;29;20047;-63
2021/01/04 11:43:43;;;;;;;61.20;36.35;;;;;;;4.13;100.00;100135.19;4955538;29;20093;-63
2021/01/04 11:46:27;;;;;;;41.72;23.58;;;;;;;4.15;99.78;100143.84;4954010;28;20109;-63
2021/01/04 11:49:11;;;;;;;69.07;41.90;;;;;;;4.09;99.80;100144.25;4954874;28;20101;-63
2021/01/04 11:51:56;;;;;;;68.63;42.08;;;;;;;4.11;99.76;100147.63;4958960;29;20038;-63
2021/01/04 11:54:41;;;;;;;59.10;35.05;;;;;;;4.11;99.12;100148.50;4957926;29;20054;-62
2021/01/04 11:57:25;;;;;;;70.10;39.08;;;;;;;4.16;97.76;100137.63;4957902;28;20105;-62
2021/01/04 12:00:10;;;;;;;55.13;30.63;;;;;;;4.15;95.90;100138.56;4959120;29;20101;-63
2021/01/04 12:02:55;;;;;;;48.50;27.42;;;;;;;4.07;97.27;100132.97;4958931;29;20049;-62
2021/01/04 12:05:39;;;;;;;56.17;36.65;;;;;;;4.09;98.58;100131.06;4957695;28;20070;-64
2021/01/04 12:08:23;;;;;;;47.55;29.55;;;;;;;4.07;98.84;100135.63;4958035;29;20093;-62
2021/01/04 12:11:07;;;;;;;48.70;29.85;;;;;;;4.11;98.30;100126.53;4958857;29;20070;-63
2021/01/04 12:13:51;;;;;;;45.72;28.63;;;;;;;4.12;98.65;100122.94;4944338;29;20512;-62
2021/01/04 12:16:35;;;;;;;39.55;23.70;;;;;;;4.10;98.67;100122.22;4958828;28;20058;-62
2021/01/04 12:19:19;;;;;;;49.78;27.35;;;;;;;4.19;96.97;100114.50;4944488;29;20078;-62
2021/01/04 12:22:04;;;;;;;;;;;;;;;4.14;97.86;100111.34;4959182;29;20512;-62
2021/01/04 12:24:49;;;;;;;42.33;24.88;;;;;;;4.09;99.14;100109.97;4957418;29;19921;-63
2021/01/04 12:27:33;;;;;;;48.35;27.38;;;;;;;4.01;98.66;100096.47;4958593;28;20459;-62
2021/01/04 12:30:18;;;;;;;55.40;32.03;;;;;;;4.13;98.03;100103.53;4958590;29;20085;-63
2021/01/04 12:33:02;;;;;;;64.93;38.35;;;;;;;4.14;98.31;100099.94;4958278;29;20054;-63
2021/01/04 12:35:46;;;;;;;50.50;27.90;;;;;;;4.15;98.95;100094.56;4957426;28;20090;-63
2021/01/04 12:38:29;;;;;;;38.03;22.63;;;;;;;4.14;98.61;100099.94;4957495;29;20093;-62
2021/01/04 12:41:14;;;;;;;40.90;23.48;;;;;;;4.21;98.27;100096.78;4958162;29;20523;-62
2021/01/04 12:43:58;;;;;;;40.63;22.77;;;;;;;4.19;96.83;100097.81;4957083;29;20054;-62
2021/01/04 12:46:46;;;;;;;38.55;22.17;;;;;;;4.15;95.03;100096.38;4956907;28;20133;-64
2021/01/04 12:49:30;;;;;;;38.95;23.60;;;;;;;4.15;94.08;100099.81;4956926;29;20127;-63
2021/01/04 12:52:14;;;;;;;;;;;;;;;4.18;95.27;100086.41;4958651;29;20054;-62
2021/01/04 12:54:58;;;;;;;45.22;27.27;;;;;;;4.18;94.45;100086.41;4957202;29;19937;-62
2021/01/04 12:57:44;;;;;;;50.25;31.48;;;;;;;4.18;94.16;100090.88;4943654;29;20053;-62
2021/01/04 13:00:28;;;;;;;43.05;26.48;;;;;;;4.18;95.00;100085.59;4958034;28;20085;-62
2021/01/04 13:03:14;;;;;;;54.83;30.92;;;;;;;4.14;94.67;100079.69;4943558;29;20081;-63
2021/01/04 13:05:58;;;;;;;48.42;27.38;;;;;;;4.17;94.56;100090.00;4957833;28;20058;-62
2021/01/04 13:08:42;;;;;;;57.75;34.10;;;;;;;4.13;94.82;100077.13;4956624;29;20097;-63
2021/01/04 13:11:26;;;;;;;43.97;25.50;;;;;;;4.14;93.77;100089.38;4957516;29;20050;-63
2021/01/04 13:14:10;;;;;;;50.50;30.13;;;;;;;4.14;94.72;100092.00;4957831;29;20050;-62